Naranja, Florida
Current Conditions -  °F | °C
As of 2:58 PM on Sunday 25 Jan 2015 (Local Time) from KHST Reporting Station
Clear Clear  
Wind Chill: 67°   Ceiling: Unl
Heat Index: 67°   Visibility: 10mi
Dew Point: 44°   Wind: 7mph
Humidity: 43%   Direction: 340°NNW
Pressure: 30"   Gusts: NA
Location:  25.4784°N, 80.4002°W
Report Text: KHST 251958Z AUTO 34006KT 10SM CLR 19/06 A3000 RMK AO2 SLP162 T01940064
Loading
Personal Weather Stations






























Interactive Weather Map New forecast layout! Learn more

10-Day Weather Forecast

Advertisements
Track Severe Weather on mobile